Time;durP1;ratioP1;P1;durP2;ratioP2;P2;SDS_P1;SDS_P2;PMS_P1;PMS_P2;Temp;Humidity;BMP_temperature;BMP_pressure;BME280_temperature;BME280_humidity;BME280_pressure;Samples;Min_cycle;Max_cycle;Signal;HPM_P1;HPM_P2
2023/08/04 00:01:57;;;;;;;;;;;;;;;29.92;37.73;98976.66;5051855;28;19912;-79
2023/08/04 00:04:22;;;;;;;;;;;;;;;29.92;37.74;98973.91;5052152;28;19995;-78
2023/08/04 00:06:48;;;;;;;;;;;;;;;29.92;37.65;98974.72;5051853;28;19909;-77
2023/08/04 00:09:13;;;;;;;;;;;;;;;29.94;37.52;98974.41;5051404;28;19909;-78
2023/08/04 00:11:38;;;;;;;;;;;;;;;29.92;37.62;98979.38;5051968;28;19908;-77
2023/08/04 00:14:04;;;;;;;;;;;;;;;29.93;38.10;98980.97;5051648;28;19966;-78
2023/08/04 00:16:29;;;;;;;;;;;;;;;29.87;37.64;98972.16;5051552;28;20385;-78
2023/08/04 00:18:54;;;;;;;;;;;;;;;29.85;38.10;98979.03;5051880;28;19958;-78
2023/08/04 00:21:19;;;;;;;;;;;;;;;29.83;38.05;98981.28;5051837;28;19913;-78
2023/08/04 00:23:44;;;;;;;;;;;;;;;29.80;38.21;98984.63;5051705;28;19909;-78
2023/08/04 00:26:10;;;;;;;;;;;;;;;29.73;37.79;98987.81;5051626;28;19908;-78
2023/08/04 00:28:35;;;;;;;;;;;;;;;29.68;38.07;98991.47;5051605;28;19909;-78
2023/08/04 00:31:01;;;;;;;;;;;;;;;29.68;38.44;98987.94;5051549;28;19931;-77
2023/08/04 00:33:26;;;;;;;;;;;;;;;29.61;38.32;98985.69;5051618;28;20378;-78
2023/08/04 00:35:51;;;;;;;;;;;;;;;29.60;38.44;98984.09;5051831;28;19968;-78
2023/08/04 00:38:16;;;;;;;;;;;;;;;29.60;37.95;98986.81;5051692;28;19909;-78
2023/08/04 00:40:42;;;;;;;;;;;;;;;29.60;37.92;98988.75;5051530;28;19920;-78
2023/08/04 00:43:07;;;;;;;;;;;;;;;29.58;38.58;98989.06;5051626;28;19915;-78
2023/08/04 00:45:33;;;;;;;;;;;;;;;29.55;38.35;98992.41;5051715;28;19916;-78
2023/08/04 00:47:58;;;;;;;;;;;;;;;29.55;38.71;98995.13;5051628;28;19909;-79
2023/08/04 00:50:24;;;;;;;;;;;;;;;29.55;38.49;98986.16;5051590;28;19992;-78
2023/08/04 00:52:50;;;;;;;;;;;;;;;29.52;38.85;98987.59;5033782;28;19909;-78
2023/08/04 00:55:17;;;;;;;;;;;;;;;29.45;38.94;98981.03;5051486;28;19911;-78
2023/08/04 00:57:42;;;;;;;;;;;;;;;29.41;39.07;98991.69;5051483;28;19959;-77
2023/08/04 01:00:08;;;;;;;;;;;;;;;29.33;39.01;98990.56;5051345;28;19920;-79
2023/08/04 01:02:34;;;;;;;;;;;;;;;29.32;39.22;98985.44;5051320;28;19917;-78
2023/08/04 01:05:00;;;;;;;;;;;;;;;29.32;38.62;98985.44;5051331;28;19909;-79
2023/08/04 01:07:27;;;;;;;;;;;;;;;29.30;38.51;98985.75;5033717;28;19908;-79
2023/08/04 01:10:04;;;;;;;;;;;;;;;29.27;38.23;98989.09;5051482;28;20352;-77
2023/08/04 01:12:47;;;;;;;;;;;;;;;29.24;38.38;98988.91;5051581;28;20377;-77
2023/08/04 01:15:13;;;;;;;;;;;;;;;29.22;38.36;98991.97;5051349;28;19908;-78
2023/08/04 01:17:39;;;;;;;;;;;;;;;29.18;37.94;98985.53;5033304;28;19963;-78
2023/08/04 01:20:04;;;;;;;;;;;;;;;29.17;37.88;98992.09;5052911;28;20297;-78
2023/08/04 01:22:29;;;;;;;;;;;;;;;29.16;38.03;98995.94;5036840;28;20051;-79
2023/08/04 01:24:55;;;;;;;;;;;;;;;29.14;38.12;98998.16;5054535;28;19951;-78
2023/08/04 01:27:40;;;;;;;;;;;;;;;29.11;38.15;99001.50;5054602;28;19961;-78
2023/08/04 01:30:07;;;;;;;;;;;;;;;29.10;38.16;98999.91;5035852;28;20003;-78
2023/08/04 01:32:32;;;;;;;;;;;;;;;29.07;38.07;99004.03;5036592;28;19920;-78
2023/08/04 01:34:58;;;;;;;;;;;;;;;29.02;38.74;99006.91;5054675;28;19909;-78
2023/08/04 01:37:23;;;;;;;;;;;;;;;28.98;39.14;98997.75;5054622;28;20368;-78
2023/08/04 01:39:48;;;;;;;;;;;;;;;28.96;38.83;99005.41;5054366;28;19909;-77
2023/08/04 01:42:14;;;;;;;;;;;;;;;28.95;38.70;99003.81;5036446;28;19912;-79
2023/08/04 01:44:39;;;;;;;;;;;;;;;28.92;39.01;99004.44;5054379;28;19915;-78
2023/08/04 01:47:05;;;;;;;;;;;;;;;28.88;39.30;99008.88;5054506;28;19915;-78
2023/08/04 01:49:30;;;;;;;;;;;;;;;28.76;40.63;99012.13;5054220;28;19951;-78
2023/08/04 01:51:56;;;;;;;;;;;;;;;28.64;40.63;99011.91;5054964;28;19956;-78
2023/08/04 01:54:21;;;;;;;;;;;;;;;28.57;40.97;99021.59;5054780;28;19963;-78
2023/08/04 01:56:47;;;;;;;;;;;;;;;28.51;40.52;99020.13;5055113;28;19908;-78
2023/08/04 01:59:13;;;;;;;;;;;;;;;28.41;41.18;99023.88;5054484;28;19916;-78
2023/08/04 02:01:38;;;;;;;;;;;;;;;28.33;40.82;99017.28;5054617;28;20348;-78
2023/08/04 02:04:03;;;;;;;;;;;;;;;28.29;41.57;99016.28;5036689;28;19952;-78
2023/08/04 02:06:28;;;;;;;;;;;;;;;28.29;41.42;99023.63;5053974;28;19915;-78
2023/08/04 02:08:54;;;;;;;;;;;;;;;28.25;41.38;99026.16;5053969;28;19916;-78
2023/08/04 02:11:19;;;;;;;;;;;;;;;28.21;40.94;99019.69;5035988;28;19909;-78
2023/08/04 02:13:44;;;;;;;;;;;;;;;28.09;41.63;99027.56;5036051;28;20369;-78
2023/08/04 02:16:09;;;;;;;;;;;;;;;28.01;41.13;99020.13;5054166;28;19975;-78
2023/08/04 02:18:34;;;;;;;;;;;;;;;27.94;40.90;99020.56;5035992;28;20046;-78
2023/08/04 02:21:00;;;;;;;;;;;;;;;27.85;41.84;99028.59;5053753;28;20368;-79
2023/08/04 02:23:25;;;;;;;;;;;;;;;27.77;41.45;99032.03;5035748;28;19916;-78
2023/08/04 02:25:50;;;;;;;;;;;;;;;27.67;41.57;99034.97;5053340;28;19909;-78
2023/08/04 02:28:16;;;;;;;;;;;;;;;27.64;42.03;99042.91;5053484;28;20297;-78
2023/08/04 02:30:41;;;;;;;;;;;;;;;27.58;42.79;99044.88;5053709;28;19905;-78
2023/08/04 02:33:06;;;;;;;;;;;;;;;27.47;43.72;99048.88;5052977;28;20301;-78
2023/08/04 02:35:31;;;;;;;;;;;;;;;27.34;42.34;99046.97;5053314;28;19975;-77
2023/08/04 02:37:57;;;;;;;;;;;;;;;27.28;43.60;99048.16;5035563;28;19908;-78
2023/08/04 02:40:22;;;;;;;;;;;;;;;27.20;42.68;99044.22;5053473;28;20369;-78
2023/08/04 02:42:47;;;;;;;;;;;;;;;27.14;43.33;99048.94;5035548;28;19909;-78
2023/08/04 02:45:12;;;;;;;;;;;;;;;27.11;44.10;99056.88;5035363;28;19915;-77
2023/08/04 02:47:38;;;;;;;;;;;;;;;27.11;42.80;99048.75;5055911;28;19909;-78
2023/08/04 02:50:06;;;;;;;;;;;;;;;27.08;43.24;99055.56;5060076;28;19931;-79
2023/08/04 02:52:32;;;;;;;;;;;;;;;27.05;44.12;99049.94;5053084;28;20003;-79
2023/08/04 02:54:58;;;;;;;;;;;;;;;27.07;43.98;99056.66;5053033;28;19908;-79
2023/08/04 02:57:28;;;;;;;;;;;;;;;27.01;45.12;99060.56;5035289;28;20062;-78
2023/08/04 02:59:53;;;;;;;;;;;;;;;26.97;44.65;99058.72;5052875;28;20400;-77
2023/08/04 03:02:18;;;;;;;;;;;;;;;26.94;45.51;99059.31;5052889;28;19919;-78
2023/08/04 03:04:43;;;;;;;;;;;;;;;26.89;44.43;99060.19;5035041;28;19931;-79
2023/08/04 03:07:09;;;;;;;;;;;;;;;26.92;45.56;99056.91;5052897;28;20356;-79
2023/08/04 03:09:34;;;;;;;;;;;;;;;26.98;44.45;99061.16;5052966;28;19909;-79
2023/08/04 03:11:59;;;;;;;;;;;;;;;27.02;45.28;99074.91;5052824;28;19912;-78
2023/08/04 03:14:25;;;;;;;;;;;;;;;26.96;44.36;99062.53;5052788;28;20396;-79
2023/08/04 03:16:50;;;;;;;;;;;;;;;26.88;45.97;99064.81;5052783;28;20016;-78
2023/08/04 03:19:17;;;;;;;;;;;;;;;26.90;45.41;99064.53;5052578;28;19913;-76
2023/08/04 03:21:43;;;;;;;;;;;;;;;26.90;46.48;99068.03;5052477;28;19912;-79
2023/08/04 03:24:08;;;;;;;;;;;;;;;26.97;45.67;99069.56;5052476;28;20444;-79
2023/08/04 03:26:33;;;;;;;;;;;;;;;26.98;45.71;99065.78;5052433;28;19909;-78
2023/08/04 03:28:58;;;;;;;;;;;;;;;26.99;46.24;99070.09;5052444;28;19913;-78
2023/08/04 03:31:24;;;;;;;;;;;;;;;27.02;46.06;99075.72;5052586;28;19909;-77
2023/08/04 03:33:49;;;;;;;;;;;;;;;27.04;45.58;99075.44;5052619;28;19913;-78
2023/08/04 03:36:14;;;;;;;;;;;;;;;27.12;45.05;99078.25;5052830;28;20005;-78
2023/08/04 03:38:39;;;;;;;;;;;;;;;27.15;44.83;99080.38;5052514;28;19910;-78
2023/08/04 03:41:05;;;;;;;;;;;;;;;27.19;44.96;99080.56;5034461;28;19948;-78
2023/08/04 03:43:30;;;;;;;;;;;;;;;27.23;44.09;99076.97;5051535;28;20279;-77
2023/08/04 03:45:55;;;;;;;;;;;;;;;27.28;44.17;99081.50;5034496;28;19929;-78
2023/08/04 03:48:20;;;;;;;;;;;;;;;27.25;44.46;99081.28;5034325;28;20374;-78
2023/08/04 03:50:46;;;;;;;;;;;;;;;27.25;44.59;99084.00;5052534;28;19963;-78
2023/08/04 03:53:11;;;;;;;;;;;;;;;27.19;44.24;99086.78;5052399;28;19908;-79
2023/08/04 03:55:36;;;;;;;;;;;;;;;27.07;44.76;99097.31;5052000;28;19915;-77
2023/08/04 03:58:01;;;;;;;;;;;;;;;26.99;44.84;99092.56;5052046;28;19959;-77
2023/08/04 04:00:27;;;;;;;;;;;;;;;26.97;44.65;99089.31;5051677;28;19915;-78
2023/08/04 04:02:52;;;;;;;;;;;;;;;26.91;45.28;99104.06;5051742;28;20297;-78
2023/08/04 04:05:17;;;;;;;;;;;;;;;26.91;45.21;99094.03;5033898;28;19916;-77
2023/08/04 04:07:42;;;;;;;;;;;;;;;26.95;44.97;99101.56;5033900;28;19908;-79
2023/08/04 04:10:08;;;;;;;;;;;;;;;27.00;44.46;99106.91;5051819;28;19908;-78
2023/08/04 04:12:33;;;;;;;;;;;;;;;27.02;44.42;99100.09;5051824;28;19909;-78
2023/08/04 04:14:59;;;;;;;;;;;;;;;27.04;44.94;99095.19;5051523;28;19916;-78
2023/08/04 04:17:24;;;;;;;;;;;;;;;27.05;44.75;99109.53;5051632;28;20282;-78
2023/08/04 04:19:49;;;;;;;;;;;;;;;27.05;44.37;99112.25;5033925;28;20008;-79
2023/08/04 04:22:15;;;;;;;;;;;;;;;27.01;44.77;99106.63;5051610;28;20283;-78
2023/08/04 04:24:40;;;;;;;;;;;;;;;27.03;44.04;99101.72;5051688;28;19915;-78
2023/08/04 04:27:05;;;;;;;;;;;;;;;27.01;45.28;99106.63;5033731;28;19948;-79
2023/08/04 04:29:32;;;;;;;;;;;;;;;27.01;44.62;99106.63;5051996;28;19976;-78
2023/08/04 04:31:57;;;;;;;;;;;;;;;27.01;45.13;99108.53;5033766;28;19935;-79
2023/08/04 04:34:22;;;;;;;;;;;;;;;26.99;44.85;99118.88;5033663;28;19979;-78
2023/08/04 04:36:47;;;;;;;;;;;;;;;26.96;45.12;99112.09;5051412;28;19933;-77
2023/08/04 04:39:13;;;;;;;;;;;;;;;26.99;45.49;99118.88;5051346;28;20388;-78
2023/08/04 04:41:39;;;;;;;;;;;;;;;26.99;45.70;99127.00;5051471;28;19917;-77
2023/08/04 04:44:04;;;;;;;;;;;;;;;26.97;45.61;99116.41;5051364;28;19908;-79
2023/08/04 04:46:29;;;;;;;;;;;;;;;26.96;46.12;99116.72;5051507;28;19909;-77
2023/08/04 04:48:55;;;;;;;;;;;;;;;26.97;45.97;99118.31;5051696;28;20393;-78
2023/08/04 04:51:20;;;;;;;;;;;;;;;27.00;45.64;99115.84;5051446;28;19909;-79
2023/08/04 04:53:45;;;;;;;;;;;;;;;27.04;47.01;99107.94;5051262;28;19909;-79
2023/08/04 04:56:10;;;;;;;;;;;;;;;27.07;45.39;99110.88;5036451;28;19974;-78
2023/08/04 04:58:36;;;;;;;;;;;;;;;27.13;46.08;99108.88;5054933;28;20321;-78
2023/08/04 05:01:02;;;;;;;;;;;;;;;27.20;45.67;99107.38;5055038;28;19913;-80
2023/08/04 05:03:27;;;;;;;;;;;;;;;27.28;45.83;99119.44;5055058;28;19908;-77
2023/08/04 05:05:53;;;;;;;;;;;;;;;27.32;44.93;99119.66;5055250;28;20461;-79
2023/08/04 05:08:18;;;;;;;;;;;;;;;27.35;45.70;99111.72;5055171;28;19915;-78
2023/08/04 05:10:43;;;;;;;;;;;;;;;27.35;45.39;99122.56;5055171;28;19916;-79
2023/08/04 05:13:08;;;;;;;;;;;;;;;27.42;45.03;99122.19;5055067;28;19940;-79
2023/08/04 05:15:34;;;;;;;;;;;;;;;27.47;45.18;99128.31;5055056;28;20442;-78
2023/08/04 05:17:59;;;;;;;;;;;;;;;27.54;44.97;99126.03;5054839;28;19991;-78
2023/08/04 05:20:24;;;;;;;;;;;;;;;27.64;44.11;99126.97;5054815;28;19963;-77
2023/08/04 05:22:49;;;;;;;;;;;;;;;27.69;44.51;99135.03;5054731;28;19913;-79
2023/08/04 05:25:15;;;;;;;;;;;;;;;27.77;44.28;99134.31;5054743;28;19992;-80
2023/08/04 05:27:40;;;;;;;;;;;;;;;27.84;44.22;99137.44;5055079;28;19909;-78
2023/08/04 05:30:06;;;;;;;;;;;;;;;27.91;44.10;99134.31;5054744;28;19958;-78
2023/08/04 05:32:31;;;;;;;;;;;;;;;27.95;44.13;99136.13;5054860;28;20397;-78
2023/08/04 05:34:56;;;;;;;;;;;;;;;27.95;44.39;99133.41;5055664;28;19913;-79
2023/08/04 05:37:21;;;;;;;;;;;;;;;28.01;44.02;99134.13;5054695;28;19966;-78
2023/08/04 05:39:47;;;;;;;;;;;;;;;28.10;44.00;99140.44;5054573;28;20369;-78
2023/08/04 05:42:13;;;;;;;;;;;;;;;28.20;43.80;99142.13;5054438;28;19917;-77
2023/08/04 05:44:38;;;;;;;;;;;;;;;28.25;43.96;99140.19;5054251;28;19912;-79
2023/08/04 05:47:03;;;;;;;;;;;;;;;28.35;43.78;99141.88;5054378;28;19987;-79
2023/08/04 05:49:31;;;;;;;;;;;;;;;28.41;43.95;99144.19;5036255;28;20325;-77
2023/08/04 05:51:56;;;;;;;;;;;;;;;28.48;43.99;99138.31;5054560;28;20392;-78
2023/08/04 05:54:21;;;;;;;;;;;;;;;28.54;43.50;99145.25;5054220;28;19908;-77
2023/08/04 05:56:46;;;;;;;;;;;;;;;28.59;43.22;99139.69;5054548;28;20341;-77
2023/08/04 05:59:12;;;;;;;;;;;;;;;28.64;43.08;99142.31;5060944;28;19917;-77
2023/08/04 06:01:37;;;;;;;;;;;;;;;28.71;43.26;99153.53;5074930;28;19972;-79
2023/08/04 06:04:02;;;;;;;;;;;;;;;28.73;43.19;99139.66;5057843;28;19973;-77
2023/08/04 06:06:28;;;;;;;;;;;;;;;28.76;43.46;99142.56;5053186;28;19916;-79
2023/08/04 06:08:53;;;;;;;;;;;;;;;28.78;42.76;99143.06;5054551;28;19908;-76
2023/08/04 06:11:18;;;;;;;;;;;;;;;28.84;43.08;99143.78;5053639;28;20366;-78
2023/08/04 06:13:44;;;;;;;;;;;;;;;28.90;43.23;99144.44;5054046;28;19916;-78
2023/08/04 06:16:09;;;;;;;;;;;;;;;28.96;42.20;99137.78;5053741;28;20366;-78
2023/08/04 06:18:34;;;;;;;;;;;;;;;28.98;43.04;99133.66;5038703;28;19912;-78
2023/08/04 06:20:59;;;;;;;;;;;;;;;29.02;43.01;99140.09;5039688;28;20356;-79
2023/08/04 06:23:25;;;;;;;;;;;;;;;29.08;42.99;99141.56;5053796;28;19916;-78
2023/08/04 06:25:50;;;;;;;;;;;;;;;29.12;43.66;99140.97;5050328;28;19920;-78
2023/08/04 06:28:15;;;;;;;;;;;;;;;29.17;43.39;99148.97;5033896;28;19909;-78
2023/08/04 06:30:41;;;;;;;;;;;;;;;29.21;42.94;99145.34;5043173;28;19915;-77
2023/08/04 06:33:06;;;;;;;;;;;;;;;29.27;43.40;99151.44;5036816;28;20004;-77
2023/08/04 06:35:31;;;;;;;;;;;;;;;29.32;43.08;99141.25;5033647;28;19913;-79
2023/08/04 06:37:57;;;;;;;;;;;;;;;29.39;43.27;99147.03;5015691;28;19909;-78
2023/08/04 06:40:22;;;;;;;;;;;;;;;29.47;42.76;99142.00;5033344;28;19936;-78
2023/08/04 06:42:48;;;;;;;;;;;;;;;29.52;42.68;99139.13;5042075;28;20077;-78
2023/08/04 06:45:13;;;;;;;;;;;;;;;29.55;42.46;99141.22;5053028;28;19909;-79
2023/08/04 06:47:38;;;;;;;;;;;;;;;29.61;42.55;99137.25;5053269;28;19908;-78
2023/08/04 06:50:04;;;;;;;;;;;;;;;29.67;42.76;99139.53;5053072;28;20294;-77
2023/08/04 06:52:30;;;;;;;;;;;;;;;29.75;42.01;99137.97;5035401;28;19908;-78
2023/08/04 06:54:56;;;;;;;;;;;;;;;29.82;42.02;99138.34;5053059;28;19931;-78
2023/08/04 06:57:21;;;;;;;;;;;;;;;29.87;42.06;99137.38;5052895;28;19909;-79
2023/08/04 06:59:46;;;;;;;;;;;;;;;29.95;41.84;99131.97;5017282;28;19928;-77
2023/08/04 07:02:11;;;;;;;;;;;;;;;30.02;42.02;99134.25;5013263;28;19937;-76
2023/08/04 07:04:36;;;;;;;;;;;;;;;30.10;41.59;99135.41;5013294;28;19913;-79
2023/08/04 07:07:02;;;;;;;;;;;;;;;30.19;41.43;99130.78;5013323;28;20383;-78
2023/08/04 07:09:27;;;;;;;;;;;;;;;30.25;41.95;99130.31;5012845;28;19913;-76
2023/08/04 07:11:53;;;;;;;;;;;;;;;30.31;41.44;99126.31;5013355;28;19913;-77
2023/08/04 07:14:18;;;;;;;;;;;;;;;30.39;41.33;99132.88;5011375;28;20163;-79
2023/08/04 07:16:46;;;;;;;;;;;;;;;30.46;40.78;99127.75;5011247;28;20677;-79
2023/08/04 07:19:11;;;;;;;;;;;;;;;30.54;40.38;99128.91;5009976;28;19996;-78
2023/08/04 07:21:36;;;;;;;;;;;;;;;30.59;40.31;99126.06;4994011;28;20005;-78
2023/08/04 07:24:02;;;;;;;;;;;;;;;30.66;40.46;99131.84;5000336;28;20000;-78
2023/08/04 07:26:27;;;;;;;;;;;;;;;30.74;40.04;99131.03;5013002;28;20007;-79
2023/08/04 07:28:53;;;;;;;;;;;;;;;30.81;40.06;99120.44;5013088;28;19909;-79
2023/08/04 07:31:18;;;;;;;;;;;;;;;30.91;39.80;99132.94;5012916;28;19909;-79
2023/08/04 07:33:44;;;;;;;;;;;;;;;30.97;39.58;99123.47;5012152;28;20448;-78
2023/08/04 07:36:09;;;;;;;;;;;;;;;31.05;39.49;99127.31;5013006;28;19920;-78
2023/08/04 07:38:34;;;;;;;;;;;;;;;31.13;38.82;99123.78;5012251;28;19935;-77
2023/08/04 07:40:59;;;;;;;;;;;;;;;31.21;39.17;99122.97;5012247;28;19924;-79
2023/08/04 07:43:25;;;;;;;;;;;;;;;31.25;39.21;99130.22;5011668;28;19969;-79
2023/08/04 07:45:53;;;;;;;;;;;;;;;31.34;38.71;99132.13;5010613;28;19971;-78
2023/08/04 07:48:18;;;;;;;;;;;;;;;31.41;38.67;99125.03;5008262;28;19901;-78
2023/08/04 07:50:44;;;;;;;;;;;;;;;31.50;38.66;99120.34;5010989;28;19913;-78
2023/08/04 07:53:09;;;;;;;;;;;;;;;31.56;38.22;99121.78;5010396;28;19920;-77
2023/08/04 07:55:36;;;;;;;;;;;;;;;31.63;38.00;99115.81;5010849;28;19963;-78
2023/08/04 07:58:01;;;;;;;;;;;;;;;31.69;38.29;99111.78;5008827;28;20288;-77
2023/08/04 08:00:26;;;;;;;;;;;;;;;31.79;38.01;99116.09;5033718;28;19923;-78
2023/08/04 08:02:52;;;;;;;;;;;;;;;31.84;37.10;99111.25;5051721;28;19936;-78
2023/08/04 08:05:17;;;;;;;;;;;;;;;31.93;37.51;99112.00;5051909;28;19916;-78
2023/08/04 08:07:42;;;;;;;;;;;;;;;32.00;36.94;99114.22;5051325;28;19920;-76
2023/08/04 08:10:07;;;;;;;;;;;;;;;32.07;36.57;99110.97;5051423;28;20329;-77
2023/08/04 08:12:33;;;;;;;;;;;;;;;32.16;36.70;99112.53;5051482;28;19966;-77
2023/08/04 08:14:58;;;;;;;;;;;;;;;32.26;36.46;99111.38;5033496;28;19920;-78
2023/08/04 08:17:23;;;;;;;;;;;;;;;32.37;36.22;99109.03;5031285;28;20330;-78
2023/08/04 08:19:48;;;;;;;;;;;;;;;32.49;36.13;99111.84;5024388;28;19970;-77
2023/08/04 08:22:14;;;;;;;;;;;;;;;32.60;35.71;99102.09;5045484;28;19917;-78
2023/08/04 08:24:39;;;;;;;;;;;;;;;32.73;35.52;99102.97;5036941;28;19912;-77
2023/08/04 08:27:04;;;;;;;;;;;;;;;32.81;35.99;99107.59;5051225;28;19909;-77
2023/08/04 08:29:29;;;;;;;;;;;;;;;32.88;34.89;99094.19;5034496;28;19919;-78
2023/08/04 08:31:55;;;;;;;;;;;;;;;32.99;34.99;99105.50;5053000;28;19927;-78
2023/08/04 08:34:20;;;;;;;;;;;;;;;33.06;35.20;99098.34;5057605;28;19909;-75
2023/08/04 08:36:45;;;;;;;;;;;;;;;33.16;34.09;99094.38;5057943;28;19909;-77
2023/08/04 08:39:11;;;;;;;;;;;;;;;33.28;34.39;99101.81;5058056;28;20344;-77
2023/08/04 08:41:36;;;;;;;;;;;;;;;33.40;33.57;99104.59;5057945;28;20407;-77
2023/08/04 08:44:01;;;;;;;;;;;;;;;33.53;33.93;99091.75;5058159;28;20384;-77
2023/08/04 08:46:27;;;;;;;;;;;;;;;33.67;34.01;99098.50;5056855;28;19962;-78
2023/08/04 08:48:55;;;;;;;;;;;;;;;33.79;34.33;99094.94;5056530;28;20316;-78
2023/08/04 08:51:21;;;;;;;;;;;;;;;33.89;34.28;99097.25;5040190;28;19915;-77
2023/08/04 08:53:47;;;;;;;;;;;;;;;34.02;33.55;99098.03;5034412;28;19912;-77
2023/08/04 08:56:16;;;;;;;;;;;;;;;34.14;32.91;99094.47;5030021;28;19920;-77
2023/08/04 08:58:42;;;;;;;;;;;;;;;34.28;33.04;99089.47;5046840;28;19940;-77
2023/08/04 09:01:08;;;;;;;;;;;;;;;34.38;32.67;99084.31;5057798;28;19917;-78
2023/08/04 09:03:33;;;;;;;;;;;;;;;34.47;31.52;99080.63;5040124;28;20389;-78
2023/08/04 09:05:59;;;;;;;;;;;;;;;34.61;32.87;99079.09;5057565;28;19952;-79
2023/08/04 09:08:24;;;;;;;;;;;;;;;34.75;32.25;99081.44;5057588;28;19962;-78
2023/08/04 09:10:49;;;;;;;;;;;;;;;34.90;33.14;99079.91;5057497;28;19913;-76
2023/08/04 09:13:15;;;;;;;;;;;;;;;35.05;30.65;99073.69;5055060;28;19912;-77
2023/08/04 09:15:51;;;;;;;;;;;;;;;35.25;30.59;99071.84;5055954;28;20304;-78
2023/08/04 09:18:29;;;;;;;;;;;;;;;35.48;31.71;99066.56;5037726;28;20413;-78
2023/08/04 09:21:00;;;;;;;;;;;;;;;35.63;31.17;99055.56;5029186;28;19944;-78
2023/08/04 09:23:27;;;;;;;;;;;;;;;35.84;30.30;99054.50;5057832;28;19999;-79
2023/08/04 09:25:55;;;;;;;;;;;;;;;36.03;29.05;99054.56;5055661;28;19936;-77
2023/08/04 09:28:20;;;;;;;;;;;;;;;36.20;30.01;99050.59;5056274;28;19913;-78
2023/08/04 09:31:01;;;;;;;;;;;;;;;36.40;29.91;99056.94;5057772;28;19958;-78
2023/08/04 09:33:27;;;;;;;;;;;;;;;36.59;29.02;99041.25;5034864;28;20004;-78
2023/08/04 09:36:06;;;;;;;;;;;;;;;36.75;29.13;99045.84;5037634;28;19909;-76
2023/08/04 09:38:32;;;;;;;;;;;;;;;36.94;28.70;99042.28;5037243;28;19917;-79
2023/08/04 09:41:01;;;;;;;;;;;;;;;37.06;28.17;99044.88;5018504;28;19909;-78
2023/08/04 09:43:26;;;;;;;;;;;;;;;37.18;27.72;99045.50;5016550;28;20330;-78
2023/08/04 09:46:01;;;;;;;;;;;;;;;37.34;26.39;99033.59;5043203;28;19920;-78
2023/08/04 09:48:27;;;;;;;;;;;;;;;37.52;26.66;99032.72;5053946;28;19913;-78
2023/08/04 09:51:09;;;;;;;;;;;;;;;37.67;26.62;99027.41;5049126;28;20445;-78
2023/08/04 09:53:35;;;;;;;;;;;;;;;37.79;27.97;99022.50;5042985;28;19920;-78
2023/08/04 09:56:01;;;;;;;;;;;;;;;37.83;25.25;99028.88;5049480;28;19966;-78
2023/08/04 09:58:26;;;;;;;;;;;;;;;37.93;26.29;99026.66;5042052;28;19920;-78
2023/08/04 10:00:51;;;;;;;;;;;;;;;38.05;26.31;99026.44;5047532;28;19952;-78
2023/08/04 10:03:17;;;;;;;;;;;;;;;38.20;26.22;99041.22;5049400;28;20087;-78
2023/08/04 10:05:43;;;;;;;;;;;;;;;38.29;25.20;99027.94;5053933;28;19909;-78
2023/08/04 10:08:09;;;;;;;;;;;;;;;38.36;26.15;99033.53;5050035;28;19955;-77
2023/08/04 10:10:34;;;;;;;;;;;;;;;38.45;25.06;99034.84;5047539;28;20411;-78
2023/08/04 10:12:59;;;;;;;;;;;;;;;38.60;24.86;99019.25;5053296;28;19908;-77
2023/08/04 10:15:25;;;;;;;;;;;;;;;38.70;25.44;99023.34;5051983;28;20396;-79
2023/08/04 10:17:50;;;;;;;;;;;;;;;38.84;25.06;99023.47;5052643;28;20321;-78
2023/08/04 10:20:15;;;;;;;;;;;;;;;39.03;25.65;99020.50;5053050;28;19939;-78
2023/08/04 10:22:42;;;;;;;;;;;;;;;39.29;24.41;99024.28;5038575;28;19916;-79
2023/08/04 10:25:15;;;;;;;;;;;;;;;39.49;24.83;99024.91;5040112;28;19919;-77
2023/08/04 10:27:47;;;;;;;;;;;;;;;39.64;25.00;99030.13;5051767;28;19920;-78
2023/08/04 10:30:12;;;;;;;;;;;;;;;39.57;24.27;99015.47;5044904;28;19930;-77
2023/08/04 10:32:39;;;;;;;;;;;;;;;39.72;24.22;99009.66;5053449;28;19908;-76
2023/08/04 10:35:18;;;;;;;;;;;;;;;39.82;24.80;99005.38;5052547;28;20385;-77
2023/08/04 10:37:51;;;;;;;;;;;;;;;39.82;24.74;99004.56;5042301;28;19913;-76
2023/08/04 10:40:29;;;;;;;;;;;;;;;39.91;24.12;99008.56;5053391;28;19908;-78
2023/08/04 10:43:04;;;;;;;;;;;;;;;40.12;23.98;99012.66;5041030;28;19919;-78
2023/08/04 10:45:47;;;;;;;;;;;;;;;40.16;23.47;99008.75;5049384;28;20301;-76
2023/08/04 10:48:17;;;;;;;;;;;;;;;40.22;23.08;99006.41;5041185;28;20373;-79
2023/08/04 10:50:42;;;;;;;;;;;;;;;40.26;22.40;99001.66;5048507;28;20408;-78
2023/08/04 10:53:09;;;;;;;;;;;;;;;40.33;23.33;98994.19;5050985;28;19908;-76
2023/08/04 10:55:34;;;;;;;;;;;;;;;40.48;22.44;98997.03;5052758;28;19920;-79
2023/08/04 10:58:02;;;;;;;;;;;;;;;40.71;22.83;98985.59;5032795;28;20328;-78
2023/08/04 11:00:27;;;;;;;;;;;;;;;40.86;22.01;98993.56;5049070;28;19916;-78
2023/08/04 11:02:52;;;;;;;;;;;;;;;40.91;22.33;98993.19;5037913;28;19924;-78
2023/08/04 11:05:21;;;;;;;;;;;;;;;40.94;22.61;98986.06;5051684;28;20474;-77
2023/08/04 11:07:47;;;;;;;;;;;;;;;40.97;22.89;98979.75;5045085;28;20437;-78
2023/08/04 11:10:12;;;;;;;;;;;;;;;41.04;22.97;98973.41;5034030;28;19948;-77
2023/08/04 11:12:38;;;;;;;;;;;;;;;40.93;22.84;98973.41;5050769;28;19936;-78
2023/08/04 11:15:03;;;;;;;;;;;;;;;40.83;22.28;98969.41;5049116;28;19967;-76
2023/08/04 11:17:29;;;;;;;;;;;;;;;40.88;22.14;98969.06;5052182;28;20385;-79
2023/08/04 11:19:54;;;;;;;;;;;;;;;40.95;22.58;98965.50;5048748;28;20386;-78
2023/08/04 11:22:23;;;;;;;;;;;;;;;41.18;22.37;98965.88;5052310;28;20456;-78
2023/08/04 11:24:49;;;;;;;;;;;;;;;41.30;21.49;98967.47;5052180;28;19953;-78
2023/08/04 11:27:15;;;;;;;;;;;;;;;41.44;20.37;98959.13;5051508;28;19928;-78
2023/08/04 11:29:41;;;;;;;;;;;;;;;41.48;21.78;98961.91;5050743;28;20381;-79
2023/08/04 11:32:23;;;;;;;;;;;;;;;41.54;21.10;98949.22;5032532;28;19913;-77
2023/08/04 11:34:49;;;;;;;;;;;;;;;41.63;20.94;98957.97;5052214;28;20034;-77
2023/08/04 11:37:15;;;;;;;;;;;;;;;41.72;20.77;98949.22;5033815;28;19995;-77
2023/08/04 11:39:42;;;;;;;;;;;;;;;41.72;21.90;98949.22;5030592;28;19912;-77
2023/08/04 11:42:11;;;;;;;;;;;;;;;41.93;19.37;98937.25;5050678;28;19928;-77
2023/08/04 11:44:36;;;;;;;;;;;;;;;41.87;20.81;98936.88;5033185;28;20412;-77
2023/08/04 11:47:02;;;;;;;;;;;;;;;42.03;20.29;98928.88;5048163;28;19913;-79
2023/08/04 11:49:28;;;;;;;;;;;;;;;42.13;21.73;98939.16;5052166;28;20349;-78
2023/08/04 11:51:53;;;;;;;;;;;;;;;42.12;20.73;98934.03;5032787;28;20003;-77
2023/08/04 11:54:20;;;;;;;;;;;;;;;42.05;19.41;98939.59;5047000;28;19938;-75
2023/08/04 11:56:45;;;;;;;;;;;;;;;42.24;19.18;98941.88;5049703;28;19923;-75
2023/08/04 11:59:11;;;;;;;;;;;;;;;42.44;19.46;98922.75;5032388;28;19917;-75
2023/08/04 12:01:37;;;;;;;;;;;;;;;42.50;19.67;98921.94;5051306;28;20389;-77
2023/08/04 12:04:18;;;;;;;;;;;;;;;42.59;20.79;98924.25;5048436;28;20007;-78
2023/08/04 12:06:43;;;;;;;;;;;;;;;42.56;20.41;98922.28;5029623;28;20013;-78
2023/08/04 12:09:11;;;;;;;;;;;;;;;42.62;19.61;98922.66;5051573;28;19943;-77
2023/08/04 12:11:45;;;;;;;;;;;;;;;42.66;21.01;98918.66;5049499;28;19909;-78
2023/08/04 12:14:10;;;;;;;;;;;;;;;42.49;20.63;98916.78;5050147;28;19912;-77
2023/08/04 12:16:49;;;;;;;;;;;;;;;42.40;18.99;98914.44;5032178;28;20310;-77
2023/08/04 12:19:14;;;;;;;;;;;;;;;42.43;19.30;98913.63;5051506;28;19908;-77
2023/08/04 12:21:39;;;;;;;;;;;;;;;42.55;19.42;98904.06;5050761;28;19923;-78
2023/08/04 12:24:04;;;;;;;;;;;;;;;42.72;19.76;98905.91;5051491;28;19909;-78
2023/08/04 12:26:30;;;;;;;;;;;;;;;42.81;19.64;98902.66;5051709;28;19908;-78
2023/08/04 12:28:55;;;;;;;;;;;;;;;42.83;20.69;98889.94;5050314;28;20390;-76
2023/08/04 12:31:20;;;;;;;;;;;;;;;42.87;19.84;98889.16;5028915;28;19956;-77
2023/08/04 12:33:45;;;;;;;;;;;;;;;42.80;19.17;98901.09;5050320;28;20382;-76
2023/08/04 12:36:11;;;;;;;;;;;;;;;42.93;18.84;98881.94;5031474;28;19995;-78
2023/08/04 12:38:36;;;;;;;;;;;;;;;42.95;19.25;98877.56;5031647;28;19920;-79
2023/08/04 12:41:01;;;;;;;;;;;;;;;43.14;19.09;98881.75;5030209;28;20020;-77
2023/08/04 12:43:26;;;;;;;;;;;;;;;43.01;19.41;98875.13;5037643;28;19916;-79